createdAt,value
2017-09-29T00:00:12.159Z,17.37
2017-09-29T00:02:40.435Z,18.93
2017-09-29T00:05:08.744Z,19.00
2017-09-29T00:07:36.282Z,20.70
2017-09-29T00:10:04.557Z,17.30
2017-09-29T00:12:32.019Z,18.20
2017-09-29T00:14:59.728Z,16.30
2017-09-29T00:17:27.202Z,16.67
2017-09-29T00:19:54.734Z,18.87
2017-09-29T00:22:22.242Z,20.27
2017-09-29T00:24:50.521Z,18.63
2017-09-29T00:27:18.886Z,20.47
2017-09-29T00:29:46.375Z,19.53
2017-09-29T00:32:13.864Z,20.03
2017-09-29T00:34:41.580Z,21.10
2017-09-29T00:37:09.942Z,20.83
2017-09-29T00:39:37.432Z,20.00
2017-09-29T00:42:05.344Z,20.63
2017-09-29T00:44:32.809Z,18.83
2017-09-29T00:47:00.736Z,20.40
2017-09-29T00:49:28.205Z,20.23
2017-09-29T00:51:55.858Z,20.00
2017-09-29T00:54:23.350Z,22.50
2017-09-29T00:56:50.853Z,23.00
2017-09-29T00:59:18.581Z,22.27
2017-09-29T01:01:46.088Z,24.67
2017-09-29T01:04:13.569Z,23.30
2017-09-29T01:06:41.048Z,23.10
2017-09-29T01:09:08.517Z,25.60
2017-09-29T01:11:36.213Z,24.60
2017-09-29T01:14:03.780Z,25.57
2017-09-29T01:16:31.265Z,26.10
2017-09-29T01:18:58.827Z,28.20
2017-09-29T01:21:26.386Z,25.07
2017-09-29T01:23:54.104Z,28.07
2017-09-29T01:26:21.589Z,27.13
2017-09-29T01:28:49.077Z,28.00
2017-09-29T01:31:16.597Z,27.90
2017-09-29T01:33:44.560Z,27.90
2017-09-29T01:36:12.145Z,29.10
2017-09-29T01:38:39.751Z,26.40
2017-09-29T01:41:08.013Z,28.77
2017-09-29T01:43:35.888Z,30.30
2017-09-29T01:46:04.146Z,27.03
2017-09-29T01:48:31.627Z,30.03
2017-09-29T01:51:00.088Z,27.27
2017-09-29T01:53:27.573Z,25.50
2017-09-29T01:55:55.067Z,28.97
2017-09-29T01:58:22.568Z,26.80
2017-09-29T02:00:50.808Z,25.90
2017-09-29T02:03:18.367Z,26.50
2017-09-29T02:05:45.838Z,30.00
2017-09-29T02:08:13.318Z,26.90
2017-09-29T02:10:40.894Z,29.33
2017-09-29T02:13:09.156Z,33.00
2017-09-29T02:15:36.873Z,32.83
2017-09-29T02:18:04.401Z,29.13
2017-09-29T02:20:31.886Z,28.60
2017-09-29T02:22:59.518Z,29.30
2017-09-29T02:25:27.047Z,31.53
2017-09-29T02:27:55.245Z,29.43
2017-09-29T02:30:23.478Z,28.70
2017-09-29T02:32:50.956Z,28.27
2017-09-29T02:35:18.441Z,31.13
2017-09-29T02:37:46.018Z,28.40
2017-09-29T02:40:13.638Z,28.83
2017-09-29T02:42:41.856Z,27.93
2017-09-29T02:45:09.386Z,27.53
2017-09-29T02:47:37.640Z,27.20
2017-09-29T02:50:05.107Z,25.90
2017-09-29T02:52:33.593Z,27.60
2017-09-29T02:55:01.829Z,26.87
2017-09-29T02:57:33.744Z,28.20
2017-09-29T03:00:05.549Z,28.53
2017-09-29T03:02:34.948Z,26.10
2017-09-29T03:05:04.771Z,26.60
2017-09-29T03:07:32.240Z,28.20
2017-09-29T03:09:59.881Z,29.17
2017-09-29T03:12:27.430Z,28.37
2017-09-29T03:14:55.018Z,29.63
2017-09-29T03:17:22.632Z,27.57
2017-09-29T03:19:50.161Z,28.67
2017-09-29T03:22:18.408Z,32.33
2017-09-29T03:24:45.990Z,28.80
2017-09-29T03:27:14.473Z,30.97
2017-09-29T03:29:42.738Z,29.63
2017-09-29T03:32:11.013Z,29.20
2017-09-29T03:34:38.490Z,34.00
2017-09-29T03:37:06.856Z,33.47
2017-09-29T03:39:35.339Z,33.20
2017-09-29T03:42:03.585Z,35.80
2017-09-29T03:44:31.045Z,36.30
2017-09-29T03:46:58.542Z,34.70
2017-09-29T03:49:26.120Z,37.70
2017-09-29T03:51:54.958Z,33.40
2017-09-29T03:54:24.905Z,34.57
2017-09-29T03:56:54.653Z,34.63
2017-09-29T03:59:23.475Z,37.70
2017-09-29T04:01:51.891Z,34.57
2017-09-29T04:04:19.370Z,37.80
2017-09-29T04:06:46.839Z,37.30
2017-09-29T04:09:14.529Z,37.60
2017-09-29T04:11:42.193Z,35.33
2017-09-29T04:14:09.649Z,36.90
2017-09-29T04:16:37.208Z,36.70
2017-09-29T04:19:04.661Z,42.17
2017-09-29T04:21:32.175Z,41.00
2017-09-29T04:23:59.647Z,40.57
2017-09-29T04:26:27.124Z,39.37
2017-09-29T04:28:54.618Z,41.10
2017-09-29T04:31:22.956Z,39.23
2017-09-29T04:33:50.637Z,38.63
2017-09-29T04:36:18.781Z,35.67
2017-09-29T04:38:46.269Z,33.70
2017-09-29T04:41:13.747Z,34.10
2017-09-29T04:43:42.162Z,34.07
2017-09-29T04:46:10.069Z,33.83
2017-09-29T04:48:37.773Z,36.67
2017-09-29T04:51:06.458Z,33.30
2017-09-29T04:53:33.976Z,33.30
2017-09-29T04:56:01.690Z,34.80
2017-09-29T04:58:29.167Z,33.17
2017-09-29T05:00:56.647Z,34.87
2017-09-29T05:03:24.101Z,36.47
2017-09-29T05:05:51.573Z,36.67
2017-09-29T05:08:19.032Z,36.30
2017-09-29T05:10:46.653Z,33.20
2017-09-29T05:13:14.147Z,33.77
2017-09-29T05:15:42.612Z,36.07
2017-09-29T05:18:10.157Z,35.60
2017-09-29T05:20:37.924Z,36.87
2017-09-29T05:23:05.450Z,33.67
2017-09-29T05:25:32.991Z,34.70
2017-09-29T05:28:01.401Z,33.97
2017-09-29T05:30:28.927Z,34.77
2017-09-29T05:32:57.203Z,34.90
2017-09-29T05:35:25.481Z,34.83
2017-09-29T05:37:54.519Z,36.93
2017-09-29T05:40:21.980Z,32.03
2017-09-29T05:42:49.617Z,33.37
2017-09-29T05:45:17.066Z,31.50
2017-09-29T05:47:44.717Z,32.10
2017-09-29T05:50:12.222Z,32.33
2017-09-29T05:52:40.344Z,31.10
2017-09-29T05:55:08.622Z,29.47
2017-09-29T05:57:36.878Z,29.30
2017-09-29T06:00:04.637Z,27.07
2017-09-29T06:02:32.905Z,27.23
2017-09-29T06:05:00.378Z,27.97
2017-09-29T06:07:28.692Z,22.60
2017-09-29T06:09:56.157Z,24.80
2017-09-29T06:12:23.899Z,20.70
2017-09-29T06:14:51.397Z,22.07
2017-09-29T06:17:18.869Z,21.17
2017-09-29T06:19:46.387Z,22.13
2017-09-29T06:22:13.914Z,21.00
2017-09-29T06:24:42.738Z,16.27
2017-09-29T06:27:10.186Z,16.57
2017-09-29T06:29:37.706Z,15.73
2017-09-29T06:32:06.689Z,13.47
2017-09-29T06:34:34.233Z,16.33
2017-09-29T06:37:01.739Z,12.97
2017-09-29T06:39:30.041Z,12.60
2017-09-29T06:41:57.513Z,15.40
2017-09-29T06:44:25.262Z,13.73
2017-09-29T06:46:52.779Z,14.07
2017-09-29T06:49:21.317Z,12.67
2017-09-29T06:51:48.810Z,12.67
2017-09-29T06:54:16.306Z,12.20
2017-09-29T06:56:43.882Z,11.90
2017-09-29T06:59:11.354Z,11.03
2017-09-29T07:01:38.847Z,10.27
2017-09-29T07:04:07.110Z,10.33
2017-09-29T07:06:35.352Z,9.50
2017-09-29T07:09:03.099Z,9.40
2017-09-29T07:11:30.596Z,9.50
2017-09-29T07:13:58.121Z,9.90
2017-09-29T07:16:25.645Z,10.37
2017-09-29T07:18:53.946Z,8.97
2017-09-29T07:21:21.447Z,8.90
2017-09-29T07:23:48.964Z,9.20
2017-09-29T07:26:22.554Z,8.20
2017-09-29T07:28:52.999Z,8.10
2017-09-29T07:31:23.175Z,8.70
2017-09-29T07:33:50.638Z,8.57
2017-09-29T07:36:19.304Z,9.13
2017-09-29T07:38:46.827Z,6.73
2017-09-29T07:41:14.299Z,7.60
2017-09-29T07:43:42.067Z,6.87
2017-09-29T07:46:09.548Z,6.70
2017-09-29T07:48:37.025Z,7.60
2017-09-29T07:51:05.274Z,7.80
2017-09-29T07:53:32.765Z,8.00
2017-09-29T07:56:00.646Z,8.67
2017-09-29T07:58:28.132Z,8.40
2017-09-29T08:00:55.618Z,7.67
2017-09-29T08:03:23.588Z,8.07
2017-09-29T08:05:51.072Z,7.40
2017-09-29T08:08:18.638Z,8.30
2017-09-29T08:10:46.129Z,9.37
2017-09-29T08:13:13.657Z,9.27
2017-09-29T08:15:41.191Z,8.33
2017-09-29T08:18:09.509Z,9.20
2017-09-29T08:20:37.318Z,9.53
2017-09-29T08:23:04.786Z,8.80
2017-09-29T08:25:33.795Z,7.93
2017-09-29T08:28:02.069Z,7.87
2017-09-29T08:30:30.322Z,8.60
2017-09-29T08:32:58.343Z,7.37
2017-09-29T08:35:26.040Z,6.80
2017-09-29T08:37:53.557Z,7.20
2017-09-29T08:40:21.151Z,6.10
2017-09-29T08:42:48.702Z,6.57
2017-09-29T08:45:16.634Z,6.70
2017-09-29T08:47:44.423Z,6.10
2017-09-29T08:50:11.901Z,6.30
2017-09-29T08:52:39.385Z,6.00
2017-09-29T08:55:06.944Z,5.97
2017-09-29T08:57:35.209Z,6.67
2017-09-29T09:00:02.797Z,5.50
2017-09-29T09:02:30.271Z,4.93
2017-09-29T09:04:57.758Z,5.37
2017-09-29T09:07:25.263Z,5.60
2017-09-29T09:09:53.842Z,6.57
2017-09-29T09:12:22.095Z,5.57
2017-09-29T09:14:49.622Z,5.17
2017-09-29T09:17:17.137Z,6.23
2017-09-29T09:19:45.450Z,5.63
2017-09-29T09:22:13.319Z,5.80
2017-09-29T09:24:41.460Z,4.73
2017-09-29T09:27:09.707Z,5.10
2017-09-29T09:29:37.237Z,4.63
2017-09-29T09:32:04.759Z,3.80
2017-09-29T09:34:32.265Z,3.87
2017-09-29T09:36:59.769Z,4.10
2017-09-29T09:39:28.082Z,3.50
2017-09-29T09:41:55.599Z,3.90
2017-09-29T09:44:23.982Z,3.90
2017-09-29T09:46:52.857Z,3.43
2017-09-29T09:49:20.389Z,3.83
2017-09-29T09:51:47.868Z,3.73
2017-09-29T09:54:15.352Z,3.43
2017-09-29T09:56:43.749Z,4.93
2017-09-29T09:59:11.384Z,4.20
2017-09-29T10:01:39.633Z,3.13
2017-09-29T10:04:07.140Z,5.03
2017-09-29T10:06:34.682Z,3.30
2017-09-29T10:09:02.922Z,2.87
2017-09-29T10:11:30.446Z,4.10
2017-09-29T10:13:57.942Z,4.20
2017-09-29T10:16:25.467Z,3.20
2017-09-29T10:18:52.954Z,4.30
2017-09-29T10:21:20.494Z,3.00
2017-09-29T10:23:48.245Z,3.60
2017-09-29T10:26:15.727Z,3.30
2017-09-29T10:28:43.244Z,3.10
2017-09-29T10:31:10.824Z,4.10
2017-09-29T10:33:38.654Z,3.20
2017-09-29T10:36:06.414Z,3.30
2017-09-29T10:38:34.677Z,3.73
2017-09-29T10:41:02.946Z,2.90
2017-09-29T10:43:30.468Z,4.60
2017-09-29T10:45:57.976Z,4.23
2017-09-29T10:48:26.438Z,4.90
2017-09-29T10:50:53.994Z,4.27
2017-09-29T10:53:21.506Z,3.90
2017-09-29T10:55:49.082Z,4.30
2017-09-29T10:58:17.569Z,3.80
2017-09-29T11:00:45.752Z,3.53
2017-09-29T11:03:13.253Z,3.33
2017-09-29T11:05:41.585Z,3.60
2017-09-29T11:08:09.065Z,3.50
2017-09-29T11:10:36.558Z,4.43
2017-09-29T11:13:04.229Z,3.63
2017-09-29T11:15:31.750Z,3.33
2017-09-29T11:18:00.078Z,4.00
2017-09-29T11:20:27.601Z,4.83
2017-09-29T11:22:55.865Z,4.67
2017-09-29T11:25:23.510Z,3.40
2017-09-29T11:27:50.957Z,3.33
2017-09-29T11:30:18.486Z,3.47
2017-09-29T11:32:46.010Z,3.23
2017-09-29T11:35:14.251Z,3.90
2017-09-29T11:37:41.870Z,3.00
2017-09-29T11:40:09.386Z,3.40
2017-09-29T11:42:38.400Z,3.80
2017-09-29T11:45:06.659Z,3.10
2017-09-29T11:47:34.989Z,3.60
2017-09-29T11:50:02.492Z,3.30
2017-09-29T11:52:31.015Z,3.13
2017-09-29T11:54:58.613Z,3.60
2017-09-29T11:57:26.870Z,2.70
2017-09-29T11:59:54.361Z,2.67
2017-09-29T12:02:22.151Z,2.77
2017-09-29T12:04:49.686Z,3.27
2017-09-29T12:07:17.153Z,3.20
2017-09-29T12:09:45.417Z,2.70
2017-09-29T12:12:12.915Z,2.73
2017-09-29T12:14:40.433Z,2.97
2017-09-29T12:17:07.910Z,3.90
2017-09-29T12:19:35.443Z,3.13
2017-09-29T12:22:02.962Z,3.03
2017-09-29T12:24:30.477Z,2.77
2017-09-29T12:26:59.989Z,2.90
2017-09-29T12:29:28.287Z,3.70
2017-09-29T12:31:55.814Z,3.87
2017-09-29T12:34:24.196Z,4.50
2017-09-29T12:36:53.150Z,3.57
2017-09-29T12:39:21.818Z,4.07
2017-09-29T12:41:49.305Z,3.97
2017-09-29T12:44:16.764Z,4.60
2017-09-29T12:46:44.342Z,3.97
2017-09-29T12:49:11.907Z,3.43
2017-09-29T12:51:40.594Z,3.93
2017-09-29T12:54:08.851Z,5.07
2017-09-29T12:56:36.334Z,4.10
2017-09-29T12:59:03.886Z,4.50
2017-09-29T13:01:32.120Z,4.00
2017-09-29T13:03:59.599Z,4.17
2017-09-29T13:06:27.076Z,3.97
2017-09-29T13:08:55.313Z,4.50
2017-09-29T13:11:22.886Z,4.57
2017-09-29T13:13:50.365Z,4.50
2017-09-29T13:16:18.635Z,4.60
2017-09-29T13:18:46.893Z,4.87
2017-09-29T13:21:14.518Z,4.00
2017-09-29T13:23:42.024Z,4.60
2017-09-29T13:26:09.514Z,4.30
2017-09-29T13:28:37.015Z,3.27
2017-09-29T13:31:04.487Z,4.50
2017-09-29T13:33:32.017Z,4.60
2017-09-29T13:35:59.516Z,3.50
2017-09-29T13:38:27.798Z,3.67
2017-09-29T13:40:56.067Z,4.03
2017-09-29T13:43:23.540Z,4.33
2017-09-29T13:45:52.000Z,4.30
2017-09-29T13:48:20.086Z,4.57
2017-09-29T13:50:48.367Z,3.70
2017-09-29T13:53:16.620Z,4.93
2017-09-29T13:55:44.172Z,3.50
2017-09-29T13:58:11.867Z,4.50
2017-09-29T14:00:40.124Z,3.43
2017-09-29T14:03:07.629Z,3.87
2017-09-29T14:05:35.113Z,3.90
2017-09-29T14:08:02.659Z,4.10
2017-09-29T14:10:30.384Z,5.03
2017-09-29T14:12:57.874Z,3.20
2017-09-29T14:15:25.369Z,5.20
2017-09-29T14:17:52.918Z,4.20
2017-09-29T14:20:20.457Z,4.27
2017-09-29T14:22:48.003Z,3.80
2017-09-29T14:25:15.474Z,4.03
2017-09-29T14:27:43.107Z,3.77
2017-09-29T14:30:10.655Z,4.60
2017-09-29T14:32:39.007Z,3.80
2017-09-29T14:35:06.610Z,4.00
2017-09-29T14:37:34.275Z,3.77
2017-09-29T14:40:01.744Z,4.00
2017-09-29T14:42:29.267Z,4.17
2017-09-29T14:44:56.791Z,4.30
2017-09-29T14:47:24.409Z,4.23
2017-09-29T14:49:52.077Z,4.40
2017-09-29T14:52:19.555Z,4.10
2017-09-29T14:54:47.085Z,3.80
2017-09-29T14:57:14.570Z,3.80
2017-09-29T14:59:42.074Z,3.30
2017-09-29T15:02:10.362Z,3.63
2017-09-29T15:04:39.100Z,3.50
2017-09-29T15:07:06.709Z,5.30
2017-09-29T15:09:34.230Z,3.90
2017-09-29T15:12:01.949Z,3.40
2017-09-29T15:14:29.526Z,3.90
2017-09-29T15:16:56.996Z,3.03
2017-09-29T15:19:24.865Z,3.30
2017-09-29T15:21:52.705Z,4.10
2017-09-29T15:24:20.256Z,4.27
2017-09-29T15:26:47.786Z,4.33
2017-09-29T15:29:16.625Z,3.60
2017-09-29T15:31:44.404Z,4.30
2017-09-29T15:34:11.902Z,6.90
2017-09-29T15:36:40.138Z,4.27
2017-09-29T15:39:07.622Z,3.40
2017-09-29T15:41:35.846Z,5.50
2017-09-29T15:44:03.518Z,5.00
2017-09-29T15:46:31.001Z,5.10
2017-09-29T15:48:58.536Z,4.43
2017-09-29T15:51:26.014Z,4.00
2017-09-29T15:53:54.283Z,4.20
2017-09-29T15:56:21.889Z,4.33
2017-09-29T15:58:49.368Z,5.47
2017-09-29T16:01:17.174Z,3.10
2017-09-29T16:03:45.536Z,5.80
2017-09-29T16:06:12.982Z,4.73
2017-09-29T16:08:41.354Z,4.70
2017-09-29T16:11:08.833Z,5.23
2017-09-29T16:13:36.349Z,4.43
2017-09-29T16:16:03.903Z,4.60
2017-09-29T16:18:32.634Z,4.90
2017-09-29T16:21:00.153Z,4.73
2017-09-29T16:23:27.648Z,5.03
2017-09-29T16:25:55.193Z,4.90
2017-09-29T16:28:22.772Z,4.90
2017-09-29T16:30:50.299Z,4.30
2017-09-29T16:33:17.795Z,4.53
2017-09-29T16:35:45.389Z,4.03
2017-09-29T16:38:13.709Z,4.47
2017-09-29T16:40:41.216Z,5.00
2017-09-29T16:43:09.526Z,5.13
2017-09-29T16:45:37.061Z,6.03
2017-09-29T16:48:05.460Z,4.97
2017-09-29T16:50:32.989Z,4.33
2017-09-29T16:53:01.454Z,5.70
2017-09-29T16:55:29.124Z,4.70
2017-09-29T16:57:56.796Z,5.27
2017-09-29T17:00:25.356Z,4.93
2017-09-29T17:02:53.663Z,4.53
2017-09-29T17:05:30.270Z,4.50
2017-09-29T17:07:57.815Z,4.87
2017-09-29T17:10:25.347Z,4.70
2017-09-29T17:12:53.596Z,6.10
2017-09-29T17:15:21.117Z,5.00
2017-09-29T17:17:48.820Z,4.53
2017-09-29T17:20:17.118Z,5.17
2017-09-29T17:22:45.395Z,5.20
2017-09-29T17:25:12.904Z,4.90
2017-09-29T17:27:41.501Z,5.53
2017-09-29T17:30:09.079Z,4.30
2017-09-29T17:32:37.346Z,8.73
2017-09-29T17:35:04.904Z,10.00
2017-09-29T17:37:32.423Z,9.33
2017-09-29T17:40:00.002Z,6.50
2017-09-29T17:42:27.845Z,5.33
2017-09-29T17:44:55.333Z,6.77
2017-09-29T17:47:22.822Z,6.87
2017-09-29T17:49:51.238Z,5.50
2017-09-29T17:52:18.759Z,6.40
2017-09-29T17:54:47.013Z,5.77
2017-09-29T17:57:15.078Z,5.20
2017-09-29T17:59:42.546Z,6.30
2017-09-29T18:02:10.794Z,4.87
2017-09-29T18:04:38.680Z,6.10
2017-09-29T18:07:06.222Z,5.90
2017-09-29T18:09:33.830Z,8.93
2017-09-29T18:12:02.234Z,8.90
2017-09-29T18:14:29.730Z,7.37
2017-09-29T18:16:57.231Z,6.50
2017-09-29T18:19:24.715Z,7.87
2017-09-29T18:21:52.304Z,7.53
2017-09-29T18:24:19.822Z,6.30
2017-09-29T18:26:47.337Z,6.53
2017-09-29T18:29:14.808Z,6.50
2017-09-29T18:31:43.049Z,6.90
2017-09-29T18:34:10.785Z,6.40
2017-09-29T18:36:38.320Z,5.83
2017-09-29T18:39:06.566Z,6.93
2017-09-29T18:41:35.006Z,7.90
2017-09-29T18:44:05.468Z,8.20
2017-09-29T18:46:39.032Z,6.20
2017-09-29T18:49:06.506Z,6.90
2017-09-29T18:51:34.173Z,5.43
2017-09-29T18:54:01.726Z,6.60
2017-09-29T18:56:29.312Z,7.40
2017-09-29T18:58:57.030Z,7.43
2017-09-29T19:01:24.573Z,7.90
2017-09-29T19:03:52.051Z,7.23
2017-09-29T19:06:19.556Z,6.23
2017-09-29T19:08:47.112Z,8.20
2017-09-29T19:11:14.944Z,7.50
2017-09-29T19:13:42.455Z,7.27
2017-09-29T19:16:09.965Z,6.57
2017-09-29T19:18:37.507Z,7.10
2017-09-29T19:21:05.026Z,7.97
2017-09-29T19:23:33.358Z,6.37
2017-09-29T19:26:00.941Z,6.60
2017-09-29T19:28:29.217Z,7.50
2017-09-29T19:30:57.824Z,8.00
2017-09-29T19:33:26.163Z,7.53
2017-09-29T19:35:53.683Z,7.67
2017-09-29T19:38:21.261Z,6.70
2017-09-29T19:40:48.785Z,7.00
2017-09-29T19:43:16.551Z,8.00
2017-09-29T19:45:44.135Z,9.03
2017-09-29T19:48:11.630Z,8.50
2017-09-29T19:50:39.998Z,9.40
2017-09-29T19:53:08.256Z,7.67
2017-09-29T19:55:36.830Z,9.13
2017-09-29T19:58:04.603Z,8.57
2017-09-29T20:00:33.138Z,8.20
2017-09-29T20:03:01.628Z,8.00
2017-09-29T20:05:30.069Z,9.70
2017-09-29T20:07:58.072Z,8.50
2017-09-29T20:10:26.353Z,8.03
2017-09-29T20:12:54.117Z,9.03
2017-09-29T20:15:21.838Z,8.27
2017-09-29T20:17:49.562Z,7.87
2017-09-29T20:20:18.408Z,7.50
2017-09-29T20:22:46.823Z,7.37
2017-09-29T20:25:14.338Z,7.40
2017-09-29T20:27:41.826Z,7.90
2017-09-29T20:30:09.524Z,8.20
2017-09-29T20:32:37.224Z,9.43
2017-09-29T20:35:04.955Z,8.60
2017-09-29T20:37:32.439Z,8.53
2017-09-29T20:39:59.957Z,7.50
2017-09-29T20:42:27.483Z,8.50
2017-09-29T20:44:55.998Z,8.03
2017-09-29T20:47:23.488Z,9.17
2017-09-29T20:49:51.053Z,8.70
2017-09-29T20:52:18.528Z,9.43
2017-09-29T20:54:46.762Z,9.30
2017-09-29T20:57:14.585Z,8.93
2017-09-29T20:59:42.053Z,9.17
2017-09-29T21:02:09.925Z,9.80
2017-09-29T21:04:37.407Z,9.73
2017-09-29T21:07:05.278Z,8.77
2017-09-29T21:09:32.993Z,8.73
2017-09-29T21:12:01.218Z,9.37
2017-09-29T21:14:29.588Z,9.53
2017-09-29T21:16:57.102Z,7.87
2017-09-29T21:19:25.457Z,8.57
2017-09-29T21:21:52.944Z,10.27
2017-09-29T21:24:20.425Z,9.00
2017-09-29T21:26:48.017Z,9.33
2017-09-29T21:29:15.500Z,8.73
2017-09-29T21:31:43.768Z,9.10
2017-09-29T21:34:11.254Z,8.60
2017-09-29T21:36:38.755Z,8.27
2017-09-29T21:39:06.556Z,8.60
2017-09-29T21:41:34.073Z,8.53
2017-09-29T21:44:01.632Z,8.50
2017-09-29T21:46:29.372Z,8.57
2017-09-29T21:48:57.167Z,9.57
2017-09-29T21:51:24.858Z,9.27
2017-09-29T21:53:52.318Z,9.37
2017-09-29T21:56:19.812Z,10.00
2017-09-29T21:58:47.336Z,9.63
2017-09-29T22:01:14.792Z,9.27
2017-09-29T22:03:43.474Z,10.20
2017-09-29T22:06:11.109Z,10.00
2017-09-29T22:08:38.702Z,9.53
2017-09-29T22:11:07.125Z,10.10
2017-09-29T22:13:34.603Z,10.50
2017-09-29T22:16:02.301Z,10.13
2017-09-29T22:18:31.260Z,10.53
2017-09-29T22:20:58.743Z,17.40
2017-09-29T22:23:26.272Z,11.50
2017-09-29T22:25:53.759Z,11.83
2017-09-29T22:28:22.158Z,11.40
2017-09-29T22:30:50.531Z,9.60
2017-09-29T22:33:18.851Z,9.90
2017-09-29T22:35:46.347Z,9.17
2017-09-29T22:38:13.842Z,9.30
2017-09-29T22:40:41.697Z,9.13
2017-09-29T22:43:09.965Z,9.67
2017-09-29T22:45:38.209Z,9.50
2017-09-29T22:48:05.697Z,9.40
2017-09-29T22:50:34.100Z,10.20
2017-09-29T22:53:02.380Z,9.20
2017-09-29T22:55:29.845Z,9.00
2017-09-29T22:57:57.359Z,8.50
2017-09-29T23:00:25.757Z,15.83
2017-09-29T23:02:53.990Z,97.07
2017-09-29T23:05:21.714Z,12.60
2017-09-29T23:07:49.300Z,11.00
2017-09-29T23:10:16.871Z,9.67
2017-09-29T23:12:44.349Z,10.60
2017-09-29T23:15:12.658Z,10.90
2017-09-29T23:17:40.176Z,9.43
2017-09-29T23:20:07.658Z,9.80
2017-09-29T23:22:35.169Z,10.33
2017-09-29T23:25:02.737Z,11.70
2017-09-29T23:27:30.218Z,8.80
2017-09-29T23:29:58.702Z,10.73
2017-09-29T23:32:26.978Z,9.50
2017-09-29T23:34:55.233Z,9.50
2017-09-29T23:37:22.729Z,9.50
2017-09-29T23:39:51.713Z,9.47
2017-09-29T23:42:19.991Z,9.80
2017-09-29T23:44:48.256Z,11.27
2017-09-29T23:47:16.540Z,13.07
2017-09-29T23:49:44.887Z,12.47
2017-09-29T23:52:12.378Z,11.73
2017-09-29T23:54:40.903Z,10.83
2017-09-29T23:57:08.438Z,8.50
2017-09-29T23:59:35.987Z,10.33
